Time;durP1;ratioP1;P1;durP2;ratioP2;P2;SDS_P1;SDS_P2;PMS_P1;PMS_P2;Temp;Humidity;BMP_temperature;BMP_pressure;BME280_temperature;BME280_humidity;BME280_pressure;Samples;Min_cycle;Max_cycle;Signal;HPM_P1;HPM_P2
2021/12/16 00:01:57;;;;;;;100.80;35.95;;;;;;;5.61;100.00;101337.77;1716332;83;27331;-71
2021/12/16 00:09:48;;;;;;;103.10;38.42;;;;;;;5.63;100.00;101341.55;1716446;83;25716;-71
2021/12/16 00:34:00;;;;;;;118.55;37.78;;;;;;;5.67;100.00;101330.58;1655269;86;25648;-70
2021/12/16 00:36:33;;;;;;;108.75;36.50;;;;;;;5.68;100.00;101322.81;1655967;86;25651;-71
2021/12/16 00:39:03;;;;;;;101.25;34.15;;;;;;;5.68;100.00;101328.98;1655174;86;25626;-72
2021/12/16 00:41:30;;;;;;;105.37;34.50;;;;;;;5.70;100.00;101331.42;1632178;86;27239;-71
2021/12/16 00:44:09;;;;;;;108.97;35.55;;;;;;;5.70;100.00;101323.38;1654869;86;25784;-72
2021/12/16 00:49:19;;;;;;;114.40;38.92;;;;;;;5.71;100.00;101322.32;1632453;86;25741;-71
2021/12/16 00:54:17;;;;;;;110.03;35.58;;;;;;;5.73;100.00;101316.16;1657230;86;27578;-72
2021/12/16 00:56:52;;;;;;;110.40;35.63;;;;;;;5.74;100.00;101321.83;1655966;86;25868;-73
2021/12/16 00:59:19;;;;;;;108.12;34.88;;;;;;;5.75;100.00;101315.37;1655273;86;25622;-73
2021/12/16 01:01:55;;;;;;;108.37;38.20;;;;;;;5.76;100.00;101315.13;1655220;86;25764;-72
2021/12/16 01:04:47;;;;;;;108.20;35.25;;;;;;;5.77;100.00;101312.73;1654868;85;25713;-73
2021/12/16 01:34:30;;;;;;;115.25;35.25;;;;;;;5.77;100.00;101290.42;1664472;86;27933;-71
2021/12/16 01:37:15;;;;;;;120.05;36.28;;;;;;;5.76;100.00;101284.80;1663121;86;25689;-71
2021/12/16 01:42:29;;;;;;;109.75;34.03;;;;;;;5.75;100.00;101277.25;1664417;86;26340;-72
2021/12/16 01:50:21;;;;;;;115.32;35.20;;;;;;;5.77;100.00;101279.17;1664332;86;25565;-73
2021/12/16 01:55:31;;;;;;;98.52;31.82;;;;;;;5.78;100.00;101267.36;1664372;86;25636;-72
2021/12/16 01:58:08;;;;;;;108.65;33.53;;;;;;;5.79;100.00;101268.19;1664011;86;25644;-72
2021/12/16 02:00:41;;;;;;;99.87;32.90;;;;;;;5.81;100.00;101270.08;1662481;86;27272;-72
2021/12/16 02:03:05;;;;;;;102.97;33.73;;;;;;;5.80;100.00;101277.84;1664174;86;25591;-73
2021/12/16 02:10:42;;;;;;;97.47;32.23;;;;;;;5.82;100.00;101273.03;1674636;85;25633;-72
2021/12/16 02:37:35;;;;;;;101.75;34.35;;;;;;;5.88;100.00;101286.80;1618453;88;25687;-71
2021/12/16 02:40:06;;;;;;;95.00;34.18;;;;;;;5.89;100.00;101285.74;1618422;88;27340;-71
2021/12/16 02:42:39;;;;;;;92.67;33.98;;;;;;;5.91;100.00;101288.98;1618343;88;25786;-71
2021/12/16 02:50:25;;;;;;;91.00;33.58;;;;;;;5.92;100.00;101282.53;1618571;88;25618;-72
2021/12/16 02:52:53;;;;;;;97.35;34.33;;;;;;;5.92;100.00;101279.04;1618397;88;27534;-71
2021/12/16 02:55:22;;;;;;;92.08;32.83;;;;;;;5.93;100.00;101285.50;1618338;88;25651;-72
2021/12/16 02:57:59;;;;;;;87.37;33.23;;;;;;;5.93;100.00;101284.16;1596917;88;25717;-71
2021/12/16 03:00:20;;;;;;;91.28;35.65;;;;;;;5.94;100.00;101284.45;1618379;88;26190;-72
2021/12/16 03:02:51;;;;;;;95.95;34.73;;;;;;;5.93;100.00;101283.36;1618436;88;25773;-73
2021/12/16 03:05:20;;;;;;;91.45;34.40;;;;;;;5.96;100.00;101283.69;1618415;88;27165;-71
2021/12/16 03:07:48;;;;;;;94.37;34.80;;;;;;;5.97;100.00;101281.81;1596927;88;29994;-73
2021/12/16 03:13:10;;;;;;;89.60;33.05;;;;;;;5.96;100.00;101277.52;1662165;85;25843;-70
2021/12/16 03:18:42;;;;;;;85.15;34.48;;;;;;;5.99;100.00;101287.73;1674577;85;28263;-70
2021/12/16 03:21:16;;;;;;;91.67;34.00;;;;;;;6.00;100.00;101291.25;1672947;85;25421;-72
2021/12/16 03:23:49;;;;;;;89.22;34.60;;;;;;;6.01;100.00;101285.63;1649462;85;25583;-72
2021/12/16 03:29:11;;;;;;;87.22;33.42;;;;;;;6.01;100.00;101284.28;1691127;84;25468;-72
2021/12/16 03:36:51;;;;;;;93.03;35.68;;;;;;;6.03;100.00;101282.15;1691140;84;25445;-72
2021/12/16 03:39:17;;;;;;;87.00;33.30;;;;;;;6.03;100.00;101278.63;1691790;84;25631;-72
2021/12/16 03:41:44;;;;;;;87.75;33.20;;;;;;;6.04;100.00;101274.89;1692131;84;25584;-71
2021/12/16 03:44:15;;;;;;;90.85;34.18;;;;;;;6.04;100.00;101275.69;1691057;84;27338;-72
2021/12/16 03:46:46;;;;;;;87.85;34.18;;;;;;;6.04;100.00;101277.03;1690985;84;25630;-70
2021/12/16 03:49:21;;;;;;;84.92;35.68;;;;;;;6.06;100.00;101270.07;1691186;84;25412;-71
2021/12/16 03:51:53;;;;;;;80.03;34.08;;;;;;;6.06;100.00;101274.09;1691066;84;25619;-71
2021/12/16 03:54:31;;;;;;;89.58;34.92;;;;;;;6.05;100.00;101267.92;1690793;84;25578;-71
2021/12/16 03:57:01;;;;;;;80.77;33.98;;;;;;;6.06;100.00;101274.93;1691042;84;27286;-70
2021/12/16 03:59:31;;;;;;;81.85;33.95;;;;;;;6.07;100.00;101281.10;1690558;84;25478;-70
2021/12/16 04:02:02;;;;;;;80.10;37.28;;;;;;;6.07;100.00;101276.53;1691122;84;25583;-70
2021/12/16 04:04:29;;;;;;;79.17;36.55;;;;;;;6.07;100.00;101279.22;1663239;84;25653;-71
2021/12/16 04:06:57;;;;;;;79.67;34.60;;;;;;;6.08;100.00;101267.94;1691082;84;25667;-72
2021/12/16 04:09:25;;;;;;;77.17;34.75;;;;;;;6.09;100.00;101275.73;1691028;84;27351;-71
2021/12/16 04:12:08;;;;;;;76.07;35.23;;;;;;;6.11;100.00;101268.77;1662849;84;25507;-71
2021/12/16 04:14:26;;;;;;;79.77;34.70;;;;;;;6.11;100.00;101262.89;1689306;84;25476;-71
2021/12/16 04:16:56;;;;;;;79.45;35.60;;;;;;;6.12;100.00;101268.52;1663002;84;25474;-72
2021/12/16 04:19:27;;;;;;;75.05;34.43;;;;;;;6.13;100.00;101268.81;1691089;84;25405;-71
2021/12/16 04:22:05;;;;;;;76.70;34.63;;;;;;;6.13;100.00;101257.23;1691164;84;27972;-71
2021/12/16 04:24:33;;;;;;;76.25;35.55;;;;;;;6.13;100.00;101259.92;1691126;84;25642;-70
2021/12/16 04:27:01;;;;;;;76.53;35.75;;;;;;;6.12;100.00;101259.12;1693858;84;25693;-70
2021/12/16 04:29:28;;;;;;;72.25;34.05;;;;;;;6.13;100.00;101258.06;1694127;84;25626;-70
2021/12/16 04:31:58;;;;;;;67.62;32.78;;;;;;;6.13;100.00;101255.89;1694171;84;25472;-72
2021/12/16 04:34:26;;;;;;;72.78;33.67;;;;;;;6.14;100.00;101253.49;1694317;84;27410;-71
2021/12/16 04:36:53;;;;;;;69.37;33.45;;;;;;;6.13;100.00;101255.89;1694086;84;25763;-72
2021/12/16 04:39:25;;;;;;;69.75;33.50;;;;;;;6.12;100.00;101245.69;1694223;84;25608;-71
2021/12/16 04:41:54;;;;;;;68.25;33.53;;;;;;;6.13;100.00;101247.32;1694151;84;25624;-71
2021/12/16 04:44:23;;;;;;;69.72;33.45;;;;;;;6.12;100.00;101238.97;1694269;84;25650;-71
2021/12/16 04:46:51;;;;;;;68.15;31.70;;;;;;;6.13;100.00;101237.09;1694258;84;28041;-71
2021/12/16 04:49:19;;;;;;;68.85;31.73;;;;;;;6.11;100.00;101241.91;1694022;84;25685;-72
2021/12/16 04:51:51;;;;;;;72.37;31.80;;;;;;;6.12;100.00;101242.20;1694111;84;25679;-71
2021/12/16 04:54:20;;;;;;;72.87;32.73;;;;;;;6.11;100.00;101241.40;1694076;84;26595;-71
2021/12/16 04:56:48;;;;;;;75.25;31.90;;;;;;;6.11;100.00;101245.94;1694235;84;25654;-71
2021/12/16 04:59:18;;;;;;;76.42;32.42;;;;;;;6.08;100.00;101244.59;1694181;84;27356;-71
2021/12/16 05:01:50;;;;;;;73.45;32.55;;;;;;;6.10;100.00;101244.34;1694073;84;25556;-72
2021/12/16 05:04:17;;;;;;;71.42;33.28;;;;;;;6.09;100.00;101231.96;1694172;84;25590;-71
2021/12/16 05:06:43;;;;;;;80.30;35.25;;;;;;;6.08;100.00;101244.59;1694118;84;25673;-71
2021/12/16 05:09:32;;;;;;;79.20;35.55;;;;;;;6.07;100.00;101230.88;1694197;84;25559;-71
2021/12/16 05:11:42;;;;;;;80.03;35.95;;;;;;;6.06;100.00;101229.78;1690665;84;27342;-71
2021/12/16 05:14:09;;;;;;;74.75;33.75;;;;;;;6.05;100.00;101232.20;1694149;84;25480;-72
2021/12/16 05:16:35;;;;;;;71.80;34.73;;;;;;;6.06;100.00;101225.75;1694222;84;25567;-71
2021/12/16 05:19:03;;;;;;;80.05;36.05;;;;;;;6.05;100.00;101233.01;1668121;84;26266;-72
2021/12/16 05:21:52;;;;;;;84.22;35.33;;;;;;;6.05;100.00;101229.52;1694152;84;25409;-72
2021/12/16 05:24:25;;;;;;;75.10;33.18;;;;;;;6.05;100.00;101234.89;1693056;84;27330;-71
2021/12/16 05:27:00;;;;;;;74.77;33.83;;;;;;;6.05;100.00;101244.30;1694068;84;25575;-72
2021/12/16 05:29:27;;;;;;;76.28;34.53;;;;;;;6.05;100.00;101240.27;1694115;84;25610;-70
2021/12/16 05:31:59;;;;;;;75.70;35.23;;;;;;;6.05;100.00;101245.64;1668208;84;27446;-72
2021/12/16 05:34:25;;;;;;;74.25;34.38;;;;;;;6.03;100.00;101239.69;1694165;84;25671;-71
2021/12/16 05:36:53;;;;;;;73.62;33.85;;;;;;;6.06;100.00;101244.55;1694131;84;27331;-71
2021/12/16 05:39:19;;;;;;;68.33;33.28;;;;;;;6.05;100.00;101241.06;1694022;84;25649;-71
2021/12/16 05:41:47;;;;;;;72.53;33.15;;;;;;;6.07;100.00;101251.55;1694114;84;25458;-71
2021/12/16 05:44:14;;;;;;;75.30;34.70;;;;;;;6.06;100.00;101240.02;1694095;84;26167;-70
2021/12/16 05:46:42;;;;;;;73.80;33.45;;;;;;;6.05;100.00;101236.23;1694167;84;25472;-70
2021/12/16 05:49:13;;;;;;;69.03;33.20;;;;;;;6.05;100.00;101238.38;1694134;84;27297;-70
2021/12/16 05:51:43;;;;;;;73.95;34.18;;;;;;;6.06;100.00;101232.47;1694031;84;25637;-71
2021/12/16 05:54:12;;;;;;;70.55;34.40;;;;;;;6.06;100.00;101227.92;1694152;84;25574;-71
2021/12/16 05:56:39;;;;;;;74.05;34.23;;;;;;;6.05;100.00;101237.03;1694183;84;25621;-71
2021/12/16 05:59:11;;;;;;;74.15;34.08;;;;;;;6.05;100.00;101234.89;1694151;84;25547;-70
2021/12/16 06:01:40;;;;;;;62.98;33.00;;;;;;;6.03;100.00;101237.83;1694168;84;27515;-70
2021/12/16 06:04:07;;;;;;;64.12;32.35;;;;;;;6.02;100.00;101240.23;1694182;84;25428;-70
2021/12/16 06:06:34;;;;;;;65.12;32.42;;;;;;;6.01;100.00;101240.48;1668063;84;25491;-70
2021/12/16 06:09:02;;;;;;;77.05;32.58;;;;;;;6.01;100.00;101230.56;1694132;84;25619;-70
2021/12/16 06:11:31;;;;;;;64.77;32.15;;;;;;;6.01;100.00;101232.42;1694127;84;25477;-70
2021/12/16 06:27:44;;;;;;;69.22;34.25;;;;;;;5.95;100.00;101239.06;1693913;84;27907;-73
2021/12/16 06:30:15;;;;;;;66.82;33.78;;;;;;;5.96;100.00;101243.95;1694077;84;25618;-73
2021/12/16 06:32:42;;;;;;;69.12;35.05;;;;;;;5.96;100.00;101248.78;1694051;84;25619;-71
2021/12/16 06:35:11;;;;;;;71.10;34.70;;;;;;;5.97;100.00;101249.58;1667931;84;25512;-71
2021/12/16 06:37:39;;;;;;;70.87;34.03;;;;;;;5.97;100.00;101252.27;1668225;84;25678;-72
2021/12/16 06:40:08;;;;;;;70.80;34.05;;;;;;;5.96;100.00;101251.47;1694132;84;27188;-72
2021/12/16 06:42:38;;;;;;;71.15;35.13;;;;;;;5.96;100.00;101250.13;1694411;84;25623;-71
2021/12/16 06:45:11;;;;;;;77.40;35.20;;;;;;;5.96;100.00;101256.84;1695207;83;25429;-71
2021/12/16 06:47:45;;;;;;;64.67;33.53;;;;;;;5.94;100.00;101260.28;1693799;84;25811;-72
2021/12/16 06:50:06;;;;;;;75.45;35.20;;;;;;;5.96;100.00;101260.86;1692487;84;25623;-72
2021/12/16 06:52:39;;;;;;;67.87;34.95;;;;;;;5.95;100.00;101253.83;1668253;84;27919;-71
2021/12/16 06:55:11;;;;;;;77.40;36.93;;;;;;;5.95;100.00;101261.08;1693026;84;25479;-72
2021/12/16 06:57:52;;;;;;;71.02;34.98;;;;;;;5.94;100.00;101265.66;1693000;84;25618;-72
2021/12/16 07:00:27;;;;;;;75.37;35.30;;;;;;;5.94;100.00;101256.25;1692049;84;26188;-72
2021/12/16 07:03:02;;;;;;;70.10;35.10;;;;;;;5.95;100.00;101263.77;1692722;84;25480;-72
2021/12/16 07:05:36;;;;;;;71.20;33.50;;;;;;;5.95;100.00;101263.77;1693886;84;27434;-72
2021/12/16 07:08:07;;;;;;;70.55;33.95;;;;;;;5.93;100.00;101258.65;1693149;84;25459;-71
2021/12/16 07:10:37;;;;;;;70.60;33.08;;;;;;;5.92;100.00;101254.88;1694105;84;25658;-72
2021/12/16 07:13:16;;;;;;;70.10;34.63;;;;;;;5.95;100.00;101252.48;1694263;84;26203;-72
2021/12/16 07:15:37;;;;;;;70.40;34.30;;;;;;;6.08;100.00;101274.14;1692895;84;25420;-71
2021/12/16 07:18:04;;;;;;;71.30;32.50;;;;;;;5.94;100.00;101248.71;1694078;84;27339;-71
2021/12/16 07:20:35;;;;;;;67.05;32.67;;;;;;;5.94;100.00;101248.20;1693997;84;25664;-72
2021/12/16 07:23:05;;;;;;;66.10;33.15;;;;;;;5.95;100.00;101246.31;1694102;84;25606;-72
2021/12/16 07:25:33;;;;;;;63.73;31.65;;;;;;;5.95;100.00;101235.03;1694074;84;27766;-71
2021/12/16 07:28:03;;;;;;;73.30;33.98;;;;;;;5.96;100.00;101237.23;1694034;84;25619;-72
2021/12/16 07:30:28;;;;;;;62.98;31.60;;;;;;;5.95;100.00;101222.14;1693696;84;27380;-72
2021/12/16 07:32:55;;;;;;;69.47;32.70;;;;;;;5.96;100.00;101226.49;1693947;84;25548;-72
2021/12/16 07:35:26;;;;;;;63.98;32.50;;;;;;;5.96;100.00;101221.13;1694088;84;25644;-72
2021/12/16 07:37:55;;;;;;;60.38;31.73;;;;;;;5.97;100.00;101227.55;1693878;84;26144;-72
2021/12/16 07:40:26;;;;;;;65.67;31.45;;;;;;;5.98;100.00;101230.53;1694082;84;25646;-72
2021/12/16 07:45:35;;;;;;;68.22;33.08;;;;;;;6.00;100.00;101233.50;1694007;84;25402;-73
2021/12/16 07:48:03;;;;;;;65.10;32.55;;;;;;;5.99;100.00;101234.02;1694072;84;25619;-72
2021/12/16 07:50:30;;;;;;;64.00;32.08;;;;;;;6.00;100.00;101245.05;1694051;84;25638;-71
2021/12/16 07:52:57;;;;;;;67.67;32.60;;;;;;;6.01;100.00;101239.97;1694030;84;25612;-72
2021/12/16 07:55:25;;;;;;;61.75;32.55;;;;;;;6.02;100.00;101224.66;1694056;84;27911;-72
2021/12/16 07:57:52;;;;;;;61.90;32.45;;;;;;;6.02;100.00;101218.73;1693979;84;25646;-71
2021/12/16 08:00:23;;;;;;;64.00;30.35;;;;;;;6.05;100.00;101210.17;1668152;84;25435;-71
2021/12/16 08:02:51;;;;;;;61.28;31.20;;;;;;;6.06;100.00;101222.55;1694069;84;25582;-72
2021/12/16 08:05:23;;;;;;;66.37;31.73;;;;;;;6.07;100.00;101220.67;1668300;84;25496;-72
2021/12/16 08:07:49;;;;;;;66.12;30.75;;;;;;;6.07;100.00;101220.67;1694157;84;27334;-72
2021/12/16 08:10:21;;;;;;;60.17;29.87;;;;;;;6.08;100.00;101227.64;1694053;84;25389;-72
2021/12/16 08:12:49;;;;;;;65.95;30.72;;;;;;;6.08;100.00;101231.67;1694126;84;25665;-71
2021/12/16 08:15:17;;;;;;;66.28;31.50;;;;;;;6.08;100.00;101239.22;1694032;84;25642;-71
2021/12/16 08:17:45;;;;;;;61.28;30.25;;;;;;;6.08;100.00;101233.84;1694058;84;25642;-72
2021/12/16 08:20:20;;;;;;;68.50;32.38;;;;;;;6.09;100.00;101233.30;1694162;84;27500;-72
2021/12/16 08:22:47;;;;;;;70.50;33.08;;;;;;;6.09;100.00;101223.91;1693423;84;25887;-71
2021/12/16 08:25:16;;;;;;;69.50;34.20;;;;;;;6.11;100.00;101229.83;1694036;84;25434;-71
2021/12/16 08:27:45;;;;;;;68.73;33.70;;;;;;;6.11;100.00;101238.71;1692809;84;25697;-72
2021/12/16 08:30:16;;;;;;;62.25;31.00;;;;;;;6.12;100.00;101228.23;1694213;84;29589;-72
2021/12/16 08:32:44;;;;;;;70.75;31.73;;;;;;;6.12;100.00;101232.80;1694040;84;27386;-72
2021/12/16 08:35:12;;;;;;;64.17;31.27;;;;;;;6.12;100.00;101228.23;1693978;84;25397;-73
2021/12/16 08:37:40;;;;;;;69.03;33.08;;;;;;;6.13;100.00;101231.20;1694023;84;25597;-72
2021/12/16 08:40:12;;;;;;;67.22;31.65;;;;;;;6.14;100.00;101234.69;1694034;84;25628;-72
2021/12/16 08:42:39;;;;;;;62.03;31.65;;;;;;;6.13;100.00;101234.40;1693695;84;25636;-72
2021/12/16 08:45:14;;;;;;;65.80;31.77;;;;;;;6.14;100.00;101246.78;1694035;84;27415;-72
2021/12/16 08:47:41;;;;;;;65.52;31.07;;;;;;;6.15;100.00;101254.58;1694061;84;25452;-72
2021/12/16 08:50:13;;;;;;;62.25;30.65;;;;;;;6.15;100.00;101251.90;1645655;84;25608;-72
2021/12/16 08:52:39;;;;;;;63.08;31.35;;;;;;;6.15;100.00;101255.92;1694110;84;25625;-70
2021/12/16 08:55:11;;;;;;;65.25;31.33;;;;;;;6.16;100.00;101248.16;1667975;84;25451;-71
2021/12/16 08:57:37;;;;;;;65.30;31.87;;;;;;;6.16;100.00;101246.81;1694858;84;27340;-69
2021/12/16 09:00:09;;;;;;;67.17;30.08;;;;;;;6.18;100.00;101247.91;1694367;84;25619;-70
2021/12/16 09:02:36;;;;;;;63.38;31.17;;;;;;;6.17;100.00;101244.93;1694078;84;25406;-70
2021/12/16 09:05:05;;;;;;;67.40;31.00;;;;;;;6.17;100.00;101248.96;1694056;84;25640;-70
2021/12/16 09:07:32;;;;;;;66.37;30.35;;;;;;;6.20;100.00;101248.45;1694348;84;33382;-69
2021/12/16 09:09:59;;;;;;;59.48;29.95;;;;;;;6.22;100.00;101256.27;1694154;84;27403;-71
2021/12/16 09:15:06;;;;;;;57.23;26.95;;;;;;;6.24;100.00;101215.97;1694144;84;25547;-70
2021/12/16 09:17:34;;;;;;;59.27;28.57;;;;;;;6.25;100.00;101212.73;1668226;84;25660;-70
2021/12/16 09:20:00;;;;;;;56.77;27.30;;;;;;;6.29;100.00;101223.27;1694191;84;25474;-70
2021/12/16 09:22:28;;;;;;;58.00;27.15;;;;;;;6.29;100.00;101220.03;1694089;84;29119;-70
2021/12/16 09:24:56;;;;;;;53.52;26.97;;;;;;;6.29;100.00;101226.75;1694061;84;25651;-70
2021/12/16 09:27:24;;;;;;;59.75;27.32;;;;;;;6.35;100.00;101230.28;1668768;84;25472;-70
2021/12/16 09:29:51;;;;;;;57.00;27.42;;;;;;;6.36;100.00;101242.11;1693984;84;26336;-70
2021/12/16 09:32:18;;;;;;;50.67;25.95;;;;;;;6.40;100.00;101236.23;1694226;84;25227;-70
2021/12/16 09:34:46;;;;;;;51.37;25.32;;;;;;;6.40;100.00;101224.94;1694158;84;27965;-70
2021/12/16 09:37:13;;;;;;;48.48;25.12;;;;;;;6.44;100.00;101234.67;1694046;84;25464;-70
2021/12/16 09:39:39;;;;;;;51.48;26.50;;;;;;;6.47;100.00;101238.16;1668429;84;25620;-70
2021/12/16 09:42:09;;;;;;;53.63;27.17;;;;;;;6.49;100.00;101237.39;1694114;84;25642;-70
2021/12/16 09:44:38;;;;;;;53.95;27.35;;;;;;;6.50;100.00;101234.45;1694270;84;25484;-71
2021/12/16 09:47:09;;;;;;;48.97;27.00;;;;;;;6.53;100.00;101230.41;1694566;84;27346;-71
2021/12/16 09:49:37;;;;;;;48.52;24.50;;;;;;;6.52;100.00;101238.19;1695147;84;25630;-70
2021/12/16 09:52:07;;;;;;;51.58;28.35;;;;;;;6.54;100.00;101243.60;1694426;84;25470;-70
2021/12/16 09:54:34;;;;;;;55.60;28.85;;;;;;;6.54;100.00;101241.45;1668244;84;25687;-70
2021/12/16 09:57:03;;;;;;;47.43;25.43;;;;;;;6.57;100.00;101233.39;1694110;84;25607;-70
2021/12/16 09:59:33;;;;;;;38.83;23.03;;;;;;;6.57;100.00;101242.26;1668497;84;27424;-70
2021/12/16 10:02:04;;;;;;;46.90;23.12;;;;;;;6.59;100.00;101242.84;1693996;84;25554;-70
2021/12/16 10:04:34;;;;;;;45.28;23.02;;;;;;;6.60;100.00;101242.30;1694072;84;25624;-70
2021/12/16 10:07:05;;;;;;;42.95;23.22;;;;;;;6.60;100.00;101234.23;1694216;84;25631;-70
2021/12/16 10:09:32;;;;;;;41.55;21.65;;;;;;;6.60;100.00;101235.03;1694178;84;25605;-69
2021/12/16 10:12:07;;;;;;;37.67;20.90;;;;;;;6.61;100.00;101227.80;1694192;84;27333;-70
2021/12/16 10:14:44;;;;;;;44.42;21.57;;;;;;;6.61;100.00;101228.59;1668443;84;25661;-70
2021/12/16 10:19:47;;;;;;;42.88;21.90;;;;;;;6.61;100.00;101217.84;1690776;83;25625;-70
2021/12/16 10:22:38;;;;;;;38.85;21.15;;;;;;;6.64;100.00;101217.84;1711021;83;25467;-70
2021/12/16 10:25:30;;;;;;;40.43;22.55;;;;;;;6.63;100.00;101217.04;1710563;83;27958;-70
2021/12/16 10:28:13;;;;;;;42.27;20.85;;;;;;;6.65;100.00;101204.69;1710812;83;25483;-71
2021/12/16 10:30:53;;;;;;;51.02;27.65;;;;;;;6.64;100.00;101197.16;1705018;83;25579;-71
2021/12/16 10:33:35;;;;;;;41.08;21.80;;;;;;;6.65;100.00;101200.11;1704976;84;25738;-72
2021/12/16 10:36:25;;;;;;;51.18;25.70;;;;;;;6.64;100.00;101198.51;1684460;83;25596;-72
2021/12/16 10:39:02;;;;;;;41.92;22.70;;;;;;;6.65;100.00;101200.66;1704945;84;27909;-73
2021/12/16 10:41:49;;;;;;;41.77;22.10;;;;;;;6.64;100.00;101191.79;1704861;84;25419;-73
2021/12/16 10:44:23;;;;;;;50.78;27.10;;;;;;;6.65;100.00;101200.66;1735388;82;25447;-73
2021/12/16 10:47:13;;;;;;;66.87;32.50;;;;;;;6.64;100.00;101201.71;1735321;82;26158;-73
2021/12/16 10:49:44;;;;;;;51.28;26.35;;;;;;;6.65;100.00;101208.72;1735726;82;25597;-74
2021/12/16 10:52:19;;;;;;;53.08;26.12;;;;;;;6.62;100.00;101211.92;1709510;82;27363;-72
2021/12/16 10:54:50;;;;;;;54.77;27.40;;;;;;;6.64;100.00;101212.46;1734506;82;25861;-72
2021/12/16 10:57:22;;;;;;;47.50;26.52;;;;;;;6.64;100.00;101202.55;1735288;82;25608;-73
2021/12/16 10:59:53;;;;;;;55.63;27.67;;;;;;;6.65;100.00;101211.41;1716047;82;26168;-73
2021/12/16 11:02:25;;;;;;;46.73;24.98;;;;;;;6.65;100.00;101212.20;1735305;82;25561;-73
2021/12/16 11:05:05;;;;;;;48.33;25.32;;;;;;;6.66;100.00;101209.80;1735022;82;27954;-73
2021/12/16 11:07:42;;;;;;;44.15;24.00;;;;;;;6.67;100.00;101218.12;1735218;82;25600;-73
2021/12/16 11:10:18;;;;;;;44.45;24.90;;;;;;;6.65;100.00;101198.77;1735269;82;25470;-73
2021/12/16 11:12:59;;;;;;;48.38;25.57;;;;;;;6.67;100.00;101197.16;1735198;82;25733;-74
2021/12/16 11:15:43;;;;;;;45.43;24.55;;;;;;;6.67;100.00;101202.55;1735492;82;25467;-74
2021/12/16 11:18:21;;;;;;;45.20;24.30;;;;;;;6.68;100.00;101204.17;1735366;82;27330;-74
2021/12/16 11:20:58;;;;;;;45.80;25.08;;;;;;;6.67;100.00;101197.96;1716223;83;25486;-75
2021/12/16 11:23:37;;;;;;;42.13;23.30;;;;;;;6.68;100.00;101190.73;1735376;82;25551;-73
2021/12/16 11:26:15;;;;;;;45.28;24.60;;;;;;;6.67;100.00;101184.52;1734492;82;25841;-74
2021/12/16 11:28:48;;;;;;;45.15;24.77;;;;;;;6.68;100.00;101184.01;1729060;82;25583;-74
2021/12/16 11:31:20;;;;;;;41.40;24.18;;;;;;;6.67;100.00;101186.41;1691256;84;28327;-75
2021/12/16 11:33:54;;;;;;;39.18;23.07;;;;;;;6.68;100.00;101179.43;1684681;84;25492;-74
2021/12/16 11:36:29;;;;;;;37.55;22.05;;;;;;;6.69;100.00;101188.30;1704901;84;25441;-74
2021/12/16 11:39:10;;;;;;;35.43;20.48;;;;;;;6.68;100.00;101191.53;1704811;84;26310;-73
2021/12/16 11:41:46;;;;;;;38.25;21.95;;;;;;;6.69;100.00;101191.81;1704899;84;25594;-74
2021/12/16 11:44:32;;;;;;;34.25;20.15;;;;;;;6.70;100.00;101188.58;1704953;84;27337;-74
2021/12/16 11:47:09;;;;;;;36.75;19.75;;;;;;;6.72;100.00;101179.72;1691041;84;25542;-74
2021/12/16 11:49:40;;;;;;;37.75;20.55;;;;;;;6.77;100.00;101195.07;1691331;84;25475;-73
2021/12/16 11:52:21;;;;;;;30.72;18.92;;;;;;;6.79;100.00;101192.92;1690531;84;25680;-74
2021/12/16 11:55:01;;;;;;;30.75;17.62;;;;;;;6.79;100.00;101182.17;1691161;84;25605;-74
2021/12/16 11:57:35;;;;;;;22.60;14.60;;;;;;;6.82;100.00;101178.97;1691054;84;27350;-74
2021/12/16 12:00:22;;;;;;;23.73;14.87;;;;;;;6.83;100.00;101189.46;1689918;84;25514;-74
2021/12/16 12:02:56;;;;;;;22.60;14.68;;;;;;;6.85;100.00;101181.13;1691078;84;25546;-73
2021/12/16 12:05:48;;;;;;;22.48;15.30;;;;;;;6.87;100.00;101187.05;1691119;84;25633;-73
2021/12/16 12:08:20;;;;;;;20.72;14.35;;;;;;;6.89;100.00;101191.08;1691115;84;25414;-72
2021/12/16 12:10:59;;;;;;;27.22;14.20;;;;;;;6.90;100.00;101187.34;1690672;84;27450;-74
2021/12/16 12:13:29;;;;;;;19.70;12.28;;;;;;;6.90;100.00;101181.95;1692003;84;25424;-73
2021/12/16 12:16:16;;;;;;;19.85;13.22;;;;;;;6.89;100.00;101179.52;1691072;84;25647;-73
2021/12/16 12:18:57;;;;;;;18.52;12.53;;;;;;;6.89;100.00;101185.70;1691200;84;25611;-73
2021/12/16 12:21:39;;;;;;;20.08;12.33;;;;;;;6.87;100.00;101189.75;1691091;84;25690;-73
2021/12/16 12:24:31;;;;;;;18.52;12.05;;;;;;;6.87;100.00;101183.02;1704872;84;27356;-74
2021/12/16 12:27:01;;;;;;;18.92;12.45;;;;;;;6.87;100.00;101192.44;1691828;84;25676;-73
2021/12/16 12:29:42;;;;;;;18.98;11.08;;;;;;;6.86;100.00;101184.08;1693613;84;25591;-73
2021/12/16 12:32:23;;;;;;;18.60;11.38;;;;;;;6.84;100.00;101162.02;1698077;84;26325;-73
2021/12/16 12:35:00;;;;;;;19.90;12.60;;;;;;;6.82;100.00;101180.31;1719165;83;25550;-73
2021/12/16 12:37:31;;;;;;;19.17;12.73;;;;;;;6.80;100.00;101175.73;1716271;82;27893;-73
2021/12/16 12:40:03;;;;;;;20.25;12.23;;;;;;;6.80;100.00;101173.05;1719324;83;25552;-74
2021/12/16 12:42:30;;;;;;;14.73;9.53;;;;;;;6.78;100.00;101172.50;1719755;81;25398;-73
2021/12/16 12:44:57;;;;;;;18.37;10.78;;;;;;;6.78;100.00;101181.37;1719611;83;25805;-74
2021/12/16 12:47:27;;;;;;;14.05;9.33;;;;;;;6.75;100.00;101170.33;1719725;83;25596;-73
2021/12/16 12:50:08;;;;;;;14.53;11.18;;;;;;;6.75;100.00;101179.74;1720720;83;27957;-73
2021/12/16 12:52:36;;;;;;;19.70;11.70;;;;;;;6.75;100.00;101177.85;1720216;83;25417;-73
2021/12/16 12:55:14;;;;;;;13.08;8.28;;;;;;;6.76;100.00;101180.00;1719537;83;25532;-72
2021/12/16 12:57:44;;;;;;;9.50;7.30;;;;;;;6.73;100.00;101164.67;1665534;84;26073;-72
2021/12/16 13:00:28;;;;;;;9.80;7.28;;;;;;;6.72;100.00;101172.48;1690802;84;25600;-74
2021/12/16 13:03:10;;;;;;;13.13;8.45;;;;;;;6.72;100.00;101168.45;1690123;84;27403;-74
2021/12/16 13:05:38;;;;;;;12.78;8.80;;;;;;;6.72;100.00;101175.17;1690444;84;25604;-74
2021/12/16 13:08:09;;;;;;;9.70;7.72;;;;;;;6.71;100.00;101180.26;1690695;84;25586;-72
2021/12/16 13:10:43;;;;;;;7.33;5.80;;;;;;;6.68;100.00;101194.22;1695687;83;25582;-73
2021/12/16 13:27:27;;;;;;;12.20;7.10;;;;;;;6.66;98.55;101174.05;1688745;85;25641;-73
2021/12/16 13:32:41;;;;;;;11.70;7.33;;;;;;;6.64;97.96;101163.56;1754428;81;25409;-73
2021/12/16 13:37:50;;;;;;;8.30;6.62;;;;;;;6.65;98.25;101178.60;1725596;82;25638;-73
2021/12/16 13:40:33;;;;;;;12.85;6.90;;;;;;;6.65;97.76;101185.33;1717352;83;25601;-73
2021/12/16 13:43:20;;;;;;;13.70;7.47;;;;;;;6.63;96.69;101187.47;1733374;82;27336;-73
2021/12/16 13:49:14;;;;;;;12.82;7.17;;;;;;;6.62;96.89;101198.48;1769059;80;25649;-73
2021/12/16 14:03:24;;;;;;;10.45;6.28;;;;;;;6.54;96.19;101178.29;1698120;84;25763;-74
2021/12/16 14:06:10;;;;;;;10.48;6.55;;;;;;;6.53;96.12;101192.78;1696824;83;25738;-74
2021/12/16 14:08:43;;;;;;;7.37;5.22;;;;;;;6.52;96.01;101210.80;1693609;83;25626;-75
2021/12/16 14:17:49;;;;;;;11.57;7.80;;;;;;;6.50;95.90;101201.36;1696923;84;25607;-72
2021/12/16 14:24:05;;;;;;;14.85;8.80;;;;;;;6.49;95.83;101222.61;1698323;84;25512;-74
2021/12/16 14:42:40;;;;;;;9.95;6.72;;;;;;;6.43;95.03;101283.55;1639147;85;25551;-73
2021/12/16 14:45:45;;;;;;;9.20;6.33;;;;;;;6.45;94.87;101275.23;1609944;87;25724;-74
2021/12/16 14:48:35;;;;;;;10.03;6.22;;;;;;;6.42;94.82;101271.20;1630975;87;25721;-74
2021/12/16 14:51:12;;;;;;;9.18;6.65;;;;;;;6.43;94.77;101276.03;1628460;87;25703;-73
2021/12/16 14:56:37;;;;;;;10.78;6.90;;;;;;;6.42;94.26;101279.78;1525931;93;25836;-74